sensor_id;sensor_type;location;lat;lon;timestamp;P1;durP1;ratioP1;P2;durP2;ratioP2
28760;SDS011;15917;50.014;8.352;2023-04-25T00:01:36;4.25;;;3.22;;
28760;SDS011;15917;50.014;8.352;2023-04-25T00:04:03;7.53;;;3.60;;
28760;SDS011;15917;50.014;8.352;2023-04-25T00:06:31;5.43;;;3.58;;
28760;SDS011;15917;50.014;8.352;2023-04-25T00:08:57;8.07;;;3.63;;
28760;SDS011;15917;50.014;8.352;2023-04-25T00:11:23;6.72;;;3.10;;
28760;SDS011;15917;50.014;8.352;2023-04-25T00:13:49;4.82;;;3.30;;
28760;SDS011;15917;50.014;8.352;2023-04-25T00:16:19;5.70;;;3.35;;
28760;SDS011;15917;50.014;8.352;2023-04-25T00:18:44;7.80;;;3.78;;
28760;SDS011;15917;50.014;8.352;2023-04-25T00:21:16;7.10;;;3.92;;
28760;SDS011;15917;50.014;8.352;2023-04-25T00:23:45;7.32;;;4.25;;
28760;SDS011;15917;50.014;8.352;2023-04-25T00:26:11;4.80;;;3.40;;
28760;SDS011;15917;50.014;8.352;2023-04-25T00:28:37;11.55;;;3.95;;
28760;SDS011;15917;50.014;8.352;2023-04-25T00:31:03;5.45;;;3.38;;
28760;SDS011;15917;50.014;8.352;2023-04-25T00:33:29;5.43;;;3.97;;
28760;SDS011;15917;50.014;8.352;2023-04-25T00:35:55;5.05;;;3.50;;
28760;SDS011;15917;50.014;8.352;2023-04-25T00:38:21;5.75;;;3.75;;
28760;SDS011;15917;50.014;8.352;2023-04-25T00:40:47;10.32;;;4.10;;
28760;SDS011;15917;50.014;8.352;2023-04-25T00:43:12;10.32;;;4.35;;
28760;SDS011;15917;50.014;8.352;2023-04-25T00:45:38;10.45;;;3.47;;
28760;SDS011;15917;50.014;8.352;2023-04-25T00:48:05;7.40;;;4.00;;
28760;SDS011;15917;50.014;8.352;2023-04-25T00:50:32;6.97;;;3.75;;
28760;SDS011;15917;50.014;8.352;2023-04-25T00:52:59;6.78;;;4.72;;
28760;SDS011;15917;50.014;8.352;2023-04-25T00:55:25;9.23;;;4.97;;
28760;SDS011;15917;50.014;8.352;2023-04-25T00:57:50;9.05;;;4.65;;
28760;SDS011;15917;50.014;8.352;2023-04-25T01:00:17;9.68;;;5.65;;
28760;SDS011;15917;50.014;8.352;2023-04-25T01:02:43;12.25;;;4.88;;
28760;SDS011;15917;50.014;8.352;2023-04-25T01:05:10;10.32;;;4.78;;
28760;SDS011;15917;50.014;8.352;2023-04-25T01:07:36;7.60;;;5.13;;
28760;SDS011;15917;50.014;8.352;2023-04-25T01:10:02;8.57;;;5.60;;
28760;SDS011;15917;50.014;8.352;2023-04-25T01:12:29;10.68;;;4.70;;
28760;SDS011;15917;50.014;8.352;2023-04-25T01:14:55;10.43;;;4.97;;
28760;SDS011;15917;50.014;8.352;2023-04-25T01:17:21;9.15;;;5.60;;
28760;SDS011;15917;50.014;8.352;2023-04-25T01:19:48;8.10;;;4.97;;
28760;SDS011;15917;50.014;8.352;2023-04-25T01:22:14;13.45;;;5.57;;
28760;SDS011;15917;50.014;8.352;2023-04-25T01:24:40;7.60;;;5.55;;
28760;SDS011;15917;50.014;8.352;2023-04-25T01:27:07;10.65;;;5.70;;
28760;SDS011;15917;50.014;8.352;2023-04-25T01:29:33;8.95;;;5.05;;
28760;SDS011;15917;50.014;8.352;2023-04-25T01:32:01;9.48;;;5.13;;
28760;SDS011;15917;50.014;8.352;2023-04-25T01:34:26;11.20;;;5.22;;
28760;SDS011;15917;50.014;8.352;2023-04-25T01:36:52;12.55;;;5.82;;
28760;SDS011;15917;50.014;8.352;2023-04-25T01:39:19;9.63;;;5.43;;
28760;SDS011;15917;50.014;8.352;2023-04-25T01:41:45;8.82;;;5.05;;
28760;SDS011;15917;50.014;8.352;2023-04-25T01:44:12;14.02;;;5.90;;
28760;SDS011;15917;50.014;8.352;2023-04-25T01:46:38;9.07;;;5.07;;
28760;SDS011;15917;50.014;8.352;2023-04-25T01:49:04;9.25;;;5.20;;
28760;SDS011;15917;50.014;8.352;2023-04-25T01:51:31;11.52;;;5.65;;
28760;SDS011;15917;50.014;8.352;2023-04-25T01:53:57;7.40;;;4.60;;
28760;SDS011;15917;50.014;8.352;2023-04-25T01:56:24;8.70;;;5.13;;
28760;SDS011;15917;50.014;8.352;2023-04-25T01:58:50;11.02;;;4.78;;
28760;SDS011;15917;50.014;8.352;2023-04-25T02:01:19;7.65;;;5.28;;
28760;SDS011;15917;50.014;8.352;2023-04-25T02:03:56;8.85;;;5.18;;
28760;SDS011;15917;50.014;8.352;2023-04-25T02:06:27;10.63;;;5.97;;
28760;SDS011;15917;50.014;8.352;2023-04-25T02:08:55;11.30;;;5.78;;
28760;SDS011;15917;50.014;8.352;2023-04-25T02:11:21;10.50;;;6.50;;
28760;SDS011;15917;50.014;8.352;2023-04-25T02:13:57;17.70;;;6.38;;
28760;SDS011;15917;50.014;8.352;2023-04-25T02:16:41;11.65;;;5.97;;
28760;SDS011;15917;50.014;8.352;2023-04-25T02:19:09;13.23;;;6.65;;
28760;SDS011;15917;50.014;8.352;2023-04-25T02:21:35;13.20;;;6.30;;
28760;SDS011;15917;50.014;8.352;2023-04-25T02:24:01;12.57;;;6.75;;
28760;SDS011;15917;50.014;8.352;2023-04-25T02:26:28;15.93;;;6.30;;
28760;SDS011;15917;50.014;8.352;2023-04-25T02:28:53;13.70;;;7.00;;
28760;SDS011;15917;50.014;8.352;2023-04-25T02:31:19;16.40;;;7.85;;
28760;SDS011;15917;50.014;8.352;2023-04-25T02:33:45;15.00;;;6.93;;
28760;SDS011;15917;50.014;8.352;2023-04-25T02:36:11;12.90;;;6.85;;
28760;SDS011;15917;50.014;8.352;2023-04-25T02:38:37;21.55;;;6.90;;
28760;SDS011;15917;50.014;8.352;2023-04-25T02:41:03;14.98;;;7.55;;
28760;SDS011;15917;50.014;8.352;2023-04-25T02:43:29;13.48;;;7.00;;
28760;SDS011;15917;50.014;8.352;2023-04-25T02:45:55;13.65;;;7.82;;
28760;SDS011;15917;50.014;8.352;2023-04-25T02:48:20;18.33;;;8.02;;
28760;SDS011;15917;50.014;8.352;2023-04-25T02:50:47;15.10;;;7.05;;
28760;SDS011;15917;50.014;8.352;2023-04-25T02:53:13;17.88;;;7.53;;
28760;SDS011;15917;50.014;8.352;2023-04-25T02:55:44;18.20;;;7.55;;
28760;SDS011;15917;50.014;8.352;2023-04-25T02:58:10;16.25;;;7.40;;
28760;SDS011;15917;50.014;8.352;2023-04-25T03:00:43;13.82;;;8.10;;
28760;SDS011;15917;50.014;8.352;2023-04-25T03:03:10;16.70;;;7.88;;
28760;SDS011;15917;50.014;8.352;2023-04-25T03:05:36;19.33;;;8.68;;
28760;SDS011;15917;50.014;8.352;2023-04-25T03:08:02;15.60;;;7.35;;
28760;SDS011;15917;50.014;8.352;2023-04-25T03:10:28;18.83;;;9.18;;
28760;SDS011;15917;50.014;8.352;2023-04-25T03:12:57;19.20;;;8.57;;
28760;SDS011;15917;50.014;8.352;2023-04-25T03:15:24;16.30;;;8.00;;
28760;SDS011;15917;50.014;8.352;2023-04-25T03:17:51;13.10;;;8.35;;
28760;SDS011;15917;50.014;8.352;2023-04-25T03:20:16;16.10;;;7.95;;
28760;SDS011;15917;50.014;8.352;2023-04-25T03:22:42;15.82;;;8.23;;
28760;SDS011;15917;50.014;8.352;2023-04-25T03:25:08;15.65;;;8.32;;
28760;SDS011;15917;50.014;8.352;2023-04-25T03:27:33;15.27;;;7.78;;
28760;SDS011;15917;50.014;8.352;2023-04-25T03:29:59;20.17;;;8.25;;
28760;SDS011;15917;50.014;8.352;2023-04-25T03:32:25;13.75;;;7.88;;
28760;SDS011;15917;50.014;8.352;2023-04-25T03:34:50;18.20;;;8.40;;
28760;SDS011;15917;50.014;8.352;2023-04-25T03:37:16;16.85;;;9.05;;
28760;SDS011;15917;50.014;8.352;2023-04-25T03:39:42;22.00;;;8.50;;
28760;SDS011;15917;50.014;8.352;2023-04-25T03:42:07;20.58;;;9.32;;
28760;SDS011;15917;50.014;8.352;2023-04-25T03:44:33;17.17;;;9.25;;
28760;SDS011;15917;50.014;8.352;2023-04-25T03:46:59;18.73;;;9.13;;
28760;SDS011;15917;50.014;8.352;2023-04-25T03:49:25;21.85;;;9.88;;
28760;SDS011;15917;50.014;8.352;2023-04-25T03:51:59;20.80;;;10.40;;
28760;SDS011;15917;50.014;8.352;2023-04-25T03:56:57;17.83;;;9.20;;
28760;SDS011;15917;50.014;8.352;2023-04-25T03:59:26;22.00;;;9.90;;
28760;SDS011;15917;50.014;8.352;2023-04-25T04:01:52;19.98;;;9.90;;
28760;SDS011;15917;50.014;8.352;2023-04-25T04:04:18;18.45;;;8.55;;
28760;SDS011;15917;50.014;8.352;2023-04-25T04:06:44;23.92;;;7.95;;
28760;SDS011;15917;50.014;8.352;2023-04-25T04:09:15;15.00;;;7.50;;
28760;SDS011;15917;50.014;8.352;2023-04-25T04:11:42;17.47;;;7.83;;
28760;SDS011;15917;50.014;8.352;2023-04-25T04:14:08;16.35;;;7.13;;
28760;SDS011;15917;50.014;8.352;2023-04-25T04:16:37;20.45;;;8.63;;
28760;SDS011;15917;50.014;8.352;2023-04-25T04:19:03;14.05;;;6.90;;
28760;SDS011;15917;50.014;8.352;2023-04-25T04:21:29;18.08;;;6.25;;
28760;SDS011;15917;50.014;8.352;2023-04-25T04:23:55;15.02;;;6.53;;
28760;SDS011;15917;50.014;8.352;2023-04-25T04:26:24;21.50;;;7.03;;
28760;SDS011;15917;50.014;8.352;2023-04-25T04:29:11;18.33;;;7.13;;
28760;SDS011;15917;50.014;8.352;2023-04-25T04:31:49;18.55;;;6.28;;
28760;SDS011;15917;50.014;8.352;2023-04-25T04:34:16;16.85;;;5.85;;
28760;SDS011;15917;50.014;8.352;2023-04-25T04:36:44;18.33;;;5.38;;
28760;SDS011;15917;50.014;8.352;2023-04-25T04:39:11;22.88;;;6.43;;
28760;SDS011;15917;50.014;8.352;2023-04-25T04:41:47;17.15;;;5.88;;
28760;SDS011;15917;50.014;8.352;2023-04-25T04:44:29;19.98;;;6.45;;
28760;SDS011;15917;50.014;8.352;2023-04-25T04:47:24;14.82;;;7.10;;
28760;SDS011;15917;50.014;8.352;2023-04-25T04:49:58;19.98;;;6.82;;
28760;SDS011;15917;50.014;8.352;2023-04-25T04:52:42;21.50;;;7.07;;
28760;SDS011;15917;50.014;8.352;2023-04-25T04:55:36;21.02;;;7.38;;
28760;SDS011;15917;50.014;8.352;2023-04-25T04:58:07;18.35;;;6.88;;
28760;SDS011;15917;50.014;8.352;2023-04-25T05:00:53;23.20;;;7.05;;
28760;SDS011;15917;50.014;8.352;2023-04-25T05:03:46;23.45;;;7.78;;
28760;SDS011;15917;50.014;8.352;2023-04-25T05:06:40;24.48;;;8.63;;
28760;SDS011;15917;50.014;8.352;2023-04-25T05:09:37;20.95;;;7.85;;
28760;SDS011;15917;50.014;8.352;2023-04-25T05:12:20;29.02;;;8.18;;
28760;SDS011;15917;50.014;8.352;2023-04-25T05:15:10;22.08;;;7.55;;
28760;SDS011;15917;50.014;8.352;2023-04-25T05:17:51;35.25;;;8.20;;
28760;SDS011;15917;50.014;8.352;2023-04-25T05:20:37;20.70;;;7.15;;
28760;SDS011;15917;50.014;8.352;2023-04-25T05:23:14;21.30;;;7.28;;
28760;SDS011;15917;50.014;8.352;2023-04-25T05:26:18;20.75;;;6.88;;
28760;SDS011;15917;50.014;8.352;2023-04-25T05:28:52;14.75;;;6.80;;
28760;SDS011;15917;50.014;8.352;2023-04-25T05:31:38;30.08;;;9.38;;
28760;SDS011;15917;50.014;8.352;2023-04-25T05:34:09;17.17;;;6.45;;
28760;SDS011;15917;50.014;8.352;2023-04-25T05:36:50;20.92;;;6.43;;
28760;SDS011;15917;50.014;8.352;2023-04-25T05:39:16;12.88;;;5.53;;
28760;SDS011;15917;50.014;8.352;2023-04-25T05:42:02;24.70;;;5.40;;
28760;SDS011;15917;50.014;8.352;2023-04-25T05:44:54;15.95;;;4.68;;
28760;SDS011;15917;50.014;8.352;2023-04-25T05:47:26;17.73;;;5.15;;
28760;SDS011;15917;50.014;8.352;2023-04-25T05:50:14;34.60;;;5.20;;
28760;SDS011;15917;50.014;8.352;2023-04-25T05:52:50;28.52;;;6.40;;
28760;SDS011;15917;50.014;8.352;2023-04-25T05:55:30;11.93;;;4.18;;
28760;SDS011;15917;50.014;8.352;2023-04-25T05:57:58;14.95;;;4.72;;
28760;SDS011;15917;50.014;8.352;2023-04-25T06:00:24;10.43;;;4.40;;
28760;SDS011;15917;50.014;8.352;2023-04-25T06:02:49;19.70;;;4.38;;
28760;SDS011;15917;50.014;8.352;2023-04-25T06:05:16;16.63;;;5.13;;
28760;SDS011;15917;50.014;8.352;2023-04-25T06:07:45;16.42;;;4.80;;
28760;SDS011;15917;50.014;8.352;2023-04-25T06:10:10;14.98;;;5.28;;
28760;SDS011;15917;50.014;8.352;2023-04-25T06:12:37;16.27;;;5.28;;
28760;SDS011;15917;50.014;8.352;2023-04-25T06:15:04;36.00;;;6.15;;
28760;SDS011;15917;50.014;8.352;2023-04-25T06:17:30;23.50;;;6.03;;
28760;SDS011;15917;50.014;8.352;2023-04-25T06:19:56;19.25;;;5.50;;
28760;SDS011;15917;50.014;8.352;2023-04-25T06:22:22;22.90;;;5.78;;
28760;SDS011;15917;50.014;8.352;2023-04-25T06:24:48;16.27;;;6.22;;
28760;SDS011;15917;50.014;8.352;2023-04-25T06:27:13;21.95;;;7.03;;
28760;SDS011;15917;50.014;8.352;2023-04-25T06:29:39;18.05;;;5.93;;
28760;SDS011;15917;50.014;8.352;2023-04-25T06:32:04;17.98;;;5.60;;
28760;SDS011;15917;50.014;8.352;2023-04-25T06:34:32;17.35;;;6.53;;
28760;SDS011;15917;50.014;8.352;2023-04-25T06:36:58;21.17;;;5.45;;
28760;SDS011;15917;50.014;8.352;2023-04-25T06:39:24;14.50;;;5.07;;
28760;SDS011;15917;50.014;8.352;2023-04-25T06:41:50;22.00;;;5.97;;
28760;SDS011;15917;50.014;8.352;2023-04-25T06:44:34;17.38;;;5.57;;
28760;SDS011;15917;50.014;8.352;2023-04-25T06:47:02;13.27;;;5.50;;
28760;SDS011;15917;50.014;8.352;2023-04-25T06:49:28;18.48;;;5.95;;
28760;SDS011;15917;50.014;8.352;2023-04-25T06:51:55;10.07;;;5.50;;
28760;SDS011;15917;50.014;8.352;2023-04-25T06:54:20;21.45;;;5.60;;
28760;SDS011;15917;50.014;8.352;2023-04-25T06:56:56;18.08;;;6.60;;
28760;SDS011;15917;50.014;8.352;2023-04-25T06:59:22;16.10;;;5.05;;
28760;SDS011;15917;50.014;8.352;2023-04-25T07:01:49;19.10;;;5.07;;
28760;SDS011;15917;50.014;8.352;2023-04-25T07:04:20;14.07;;;5.25;;
28760;SDS011;15917;50.014;8.352;2023-04-25T07:06:55;15.63;;;5.07;;
28760;SDS011;15917;50.014;8.352;2023-04-25T07:09:28;10.38;;;4.47;;
28760;SDS011;15917;50.014;8.352;2023-04-25T07:11:54;18.25;;;4.47;;
28760;SDS011;15917;50.014;8.352;2023-04-25T07:14:20;14.77;;;4.80;;
28760;SDS011;15917;50.014;8.352;2023-04-25T07:16:46;17.08;;;4.82;;
28760;SDS011;15917;50.014;8.352;2023-04-25T07:19:12;11.13;;;4.90;;
28760;SDS011;15917;50.014;8.352;2023-04-25T07:21:38;12.93;;;5.15;;
28760;SDS011;15917;50.014;8.352;2023-04-25T07:24:04;10.20;;;4.28;;
28760;SDS011;15917;50.014;8.352;2023-04-25T07:26:34;15.10;;;5.53;;
28760;SDS011;15917;50.014;8.352;2023-04-25T07:29:15;13.00;;;5.25;;
28760;SDS011;15917;50.014;8.352;2023-04-25T07:31:41;16.05;;;4.90;;
28760;SDS011;15917;50.014;8.352;2023-04-25T07:34:07;15.45;;;5.82;;
28760;SDS011;15917;50.014;8.352;2023-04-25T07:36:34;19.13;;;4.57;;
28760;SDS011;15917;50.014;8.352;2023-04-25T07:38:59;14.80;;;2.90;;
28760;SDS011;15917;50.014;8.352;2023-04-25T07:41:25;10.27;;;2.70;;
28760;SDS011;15917;50.014;8.352;2023-04-25T07:43:51;16.17;;;3.10;;
28760;SDS011;15917;50.014;8.352;2023-04-25T07:46:18;12.27;;;2.85;;
28760;SDS011;15917;50.014;8.352;2023-04-25T07:48:44;12.02;;;2.50;;
28760;SDS011;15917;50.014;8.352;2023-04-25T07:51:10;10.93;;;2.83;;
28760;SDS011;15917;50.014;8.352;2023-04-25T07:53:36;7.43;;;2.58;;
28760;SDS011;15917;50.014;8.352;2023-04-25T07:56:06;10.82;;;2.10;;
28760;SDS011;15917;50.014;8.352;2023-04-25T07:58:35;15.48;;;2.70;;
28760;SDS011;15917;50.014;8.352;2023-04-25T08:01:03;8.45;;;2.42;;
28760;SDS011;15917;50.014;8.352;2023-04-25T08:03:42;11.30;;;2.92;;
28760;SDS011;15917;50.014;8.352;2023-04-25T08:06:18;9.40;;;2.28;;
28760;SDS011;15917;50.014;8.352;2023-04-25T08:08:53;6.50;;;2.30;;
28760;SDS011;15917;50.014;8.352;2023-04-25T08:11:22;11.10;;;2.70;;
28760;SDS011;15917;50.014;8.352;2023-04-25T08:13:48;7.70;;;1.98;;
28760;SDS011;15917;50.014;8.352;2023-04-25T08:16:14;7.38;;;2.25;;
28760;SDS011;15917;50.014;8.352;2023-04-25T08:18:40;6.20;;;2.15;;
28760;SDS011;15917;50.014;8.352;2023-04-25T08:21:06;8.45;;;2.08;;
28760;SDS011;15917;50.014;8.352;2023-04-25T08:23:34;4.93;;;2.05;;
28760;SDS011;15917;50.014;8.352;2023-04-25T08:26:02;6.35;;;1.83;;
28760;SDS011;15917;50.014;8.352;2023-04-25T08:28:33;7.32;;;2.05;;
28760;SDS011;15917;50.014;8.352;2023-04-25T08:31:00;8.33;;;2.00;;
28760;SDS011;15917;50.014;8.352;2023-04-25T08:33:32;6.13;;;1.88;;
28760;SDS011;15917;50.014;8.352;2023-04-25T08:36:17;10.38;;;2.30;;
28760;SDS011;15917;50.014;8.352;2023-04-25T08:38:44;3.33;;;1.57;;
28760;SDS011;15917;50.014;8.352;2023-04-25T08:41:11;3.97;;;1.60;;
28760;SDS011;15917;50.014;8.352;2023-04-25T08:43:38;9.05;;;2.38;;
28760;SDS011;15917;50.014;8.352;2023-04-25T08:46:08;4.90;;;1.80;;
28760;SDS011;15917;50.014;8.352;2023-04-25T08:48:48;6.43;;;1.58;;
28760;SDS011;15917;50.014;8.352;2023-04-25T08:51:22;4.18;;;1.50;;
28760;SDS011;15917;50.014;8.352;2023-04-25T08:53:50;10.43;;;1.90;;
28760;SDS011;15917;50.014;8.352;2023-04-25T08:56:16;5.88;;;1.95;;
28760;SDS011;15917;50.014;8.352;2023-04-25T08:58:47;7.97;;;1.83;;
28760;SDS011;15917;50.014;8.352;2023-04-25T09:01:14;6.15;;;2.05;;
28760;SDS011;15917;50.014;8.352;2023-04-25T09:03:47;7.20;;;2.15;;
28760;SDS011;15917;50.014;8.352;2023-04-25T09:06:13;7.28;;;2.20;;
28760;SDS011;15917;50.014;8.352;2023-04-25T09:08:41;7.38;;;2.65;;
28760;SDS011;15917;50.014;8.352;2023-04-25T09:11:07;5.63;;;2.42;;
28760;SDS011;15917;50.014;8.352;2023-04-25T09:13:32;9.63;;;2.58;;
28760;SDS011;15917;50.014;8.352;2023-04-25T09:16:18;10.50;;;2.80;;
28760;SDS011;15917;50.014;8.352;2023-04-25T09:19:20;10.15;;;2.80;;
28760;SDS011;15917;50.014;8.352;2023-04-25T09:21:48;6.80;;;3.03;;
28760;SDS011;15917;50.014;8.352;2023-04-25T09:24:14;7.15;;;2.60;;
28760;SDS011;15917;50.014;8.352;2023-04-25T09:26:40;7.18;;;3.25;;
28760;SDS011;15917;50.014;8.352;2023-04-25T09:29:06;8.88;;;3.65;;
28760;SDS011;15917;50.014;8.352;2023-04-25T09:31:34;11.02;;;3.65;;
28760;SDS011;15917;50.014;8.352;2023-04-25T09:34:02;10.00;;;3.42;;
28760;SDS011;15917;50.014;8.352;2023-04-25T09:36:34;10.60;;;3.65;;
28760;SDS011;15917;50.014;8.352;2023-04-25T09:39:19;13.63;;;4.25;;
28760;SDS011;15917;50.014;8.352;2023-04-25T09:41:54;7.63;;;3.25;;
28760;SDS011;15917;50.014;8.352;2023-04-25T09:44:23;11.95;;;3.83;;
28760;SDS011;15917;50.014;8.352;2023-04-25T09:46:49;10.27;;;3.75;;
28760;SDS011;15917;50.014;8.352;2023-04-25T09:49:20;10.02;;;3.75;;
28760;SDS011;15917;50.014;8.352;2023-04-25T09:52:03;10.35;;;4.25;;
28760;SDS011;15917;50.014;8.352;2023-04-25T09:54:35;7.13;;;3.33;;
28760;SDS011;15917;50.014;8.352;2023-04-25T09:57:10;8.25;;;3.85;;
28760;SDS011;15917;50.014;8.352;2023-04-25T09:59:53;13.88;;;3.58;;
28760;SDS011;15917;50.014;8.352;2023-04-25T10:02:26;9.48;;;3.65;;
28760;SDS011;15917;50.014;8.352;2023-04-25T10:04:56;7.63;;;3.42;;
28760;SDS011;15917;50.014;8.352;2023-04-25T10:07:29;8.23;;;4.07;;
28760;SDS011;15917;50.014;8.352;2023-04-25T10:10:00;14.40;;;4.68;;
28760;SDS011;15917;50.014;8.352;2023-04-25T10:12:28;9.98;;;5.00;;
28760;SDS011;15917;50.014;8.352;2023-04-25T10:14:56;7.30;;;4.43;;
28760;SDS011;15917;50.014;8.352;2023-04-25T10:17:23;10.02;;;4.28;;
28760;SDS011;15917;50.014;8.352;2023-04-25T10:19:50;6.45;;;3.55;;
28760;SDS011;15917;50.014;8.352;2023-04-25T10:22:29;10.98;;;4.18;;
28760;SDS011;15917;50.014;8.352;2023-04-25T10:24:57;18.38;;;4.18;;
28760;SDS011;15917;50.014;8.352;2023-04-25T10:27:24;11.02;;;3.75;;
28760;SDS011;15917;50.014;8.352;2023-04-25T10:32:30;8.38;;;3.42;;
28760;SDS011;15917;50.014;8.352;2023-04-25T10:34:57;11.75;;;3.60;;
28760;SDS011;15917;50.014;8.352;2023-04-25T10:37:34;12.38;;;3.60;;
28760;SDS011;15917;50.014;8.352;2023-04-25T10:40:03;9.45;;;3.40;;
28760;SDS011;15917;50.014;8.352;2023-04-25T10:42:34;9.75;;;3.75;;
28760;SDS011;15917;50.014;8.352;2023-04-25T10:45:01;8.30;;;4.10;;
28760;SDS011;15917;50.014;8.352;2023-04-25T10:47:35;14.68;;;4.40;;
28760;SDS011;15917;50.014;8.352;2023-04-25T10:50:05;9.93;;;4.13;;
28760;SDS011;15917;50.014;8.352;2023-04-25T10:52:33;9.13;;;4.30;;
28760;SDS011;15917;50.014;8.352;2023-04-25T10:54:59;16.98;;;5.10;;
28760;SDS011;15917;50.014;8.352;2023-04-25T10:57:37;11.77;;;4.72;;
28760;SDS011;15917;50.014;8.352;2023-04-25T11:00:07;13.02;;;4.13;;
28760;SDS011;15917;50.014;8.352;2023-04-25T11:02:40;12.13;;;4.47;;
28760;SDS011;15917;50.014;8.352;2023-04-25T11:05:08;11.75;;;3.13;;
28760;SDS011;15917;50.014;8.352;2023-04-25T11:07:38;8.50;;;3.00;;
28760;SDS011;15917;50.014;8.352;2023-04-25T11:10:15;10.30;;;2.97;;
28760;SDS011;15917;50.014;8.352;2023-04-25T11:12:41;7.82;;;3.15;;
28760;SDS011;15917;50.014;8.352;2023-04-25T11:15:07;9.50;;;3.22;;
28760;SDS011;15917;50.014;8.352;2023-04-25T11:17:33;7.40;;;2.90;;
28760;SDS011;15917;50.014;8.352;2023-04-25T11:19:59;13.32;;;3.47;;
28760;SDS011;15917;50.014;8.352;2023-04-25T11:22:26;12.40;;;3.22;;
28760;SDS011;15917;50.014;8.352;2023-04-25T11:24:52;11.50;;;3.65;;
28760;SDS011;15917;50.014;8.352;2023-04-25T11:27:18;12.95;;;3.75;;
28760;SDS011;15917;50.014;8.352;2023-04-25T11:29:44;11.93;;;3.20;;
28760;SDS011;15917;50.014;8.352;2023-04-25T11:32:09;12.48;;;3.55;;
28760;SDS011;15917;50.014;8.352;2023-04-25T11:34:35;15.35;;;3.20;;
28760;SDS011;15917;50.014;8.352;2023-04-25T11:37:01;8.98;;;2.90;;
28760;SDS011;15917;50.014;8.352;2023-04-25T11:39:27;9.57;;;2.42;;
28760;SDS011;15917;50.014;8.352;2023-04-25T11:41:54;13.02;;;3.47;;
28760;SDS011;15917;50.014;8.352;2023-04-25T11:44:20;14.02;;;3.47;;
28760;SDS011;15917;50.014;8.352;2023-04-25T11:46:46;11.63;;;3.20;;
28760;SDS011;15917;50.014;8.352;2023-04-25T11:49:15;17.63;;;4.07;;
28760;SDS011;15917;50.014;8.352;2023-04-25T11:51:43;19.92;;;3.60;;
28760;SDS011;15917;50.014;8.352;2023-04-25T11:54:11;10.48;;;2.83;;
28760;SDS011;15917;50.014;8.352;2023-04-25T11:56:37;8.48;;;2.45;;
28760;SDS011;15917;50.014;8.352;2023-04-25T11:59:06;13.70;;;2.65;;
28760;SDS011;15917;50.014;8.352;2023-04-25T12:01:32;9.98;;;2.65;;
28760;SDS011;15917;50.014;8.352;2023-04-25T12:06:37;10.32;;;2.45;;
28760;SDS011;15917;50.014;8.352;2023-04-25T12:09:07;10.63;;;2.75;;
28760;SDS011;15917;50.014;8.352;2023-04-25T12:11:54;10.32;;;2.58;;
28760;SDS011;15917;50.014;8.352;2023-04-25T12:14:24;16.20;;;2.72;;
28760;SDS011;15917;50.014;8.352;2023-04-25T12:16:54;10.13;;;2.83;;
28760;SDS011;15917;50.014;8.352;2023-04-25T12:19:22;12.68;;;2.65;;
28760;SDS011;15917;50.014;8.352;2023-04-25T12:21:49;8.70;;;2.95;;
28760;SDS011;15917;50.014;8.352;2023-04-25T12:24:21;10.88;;;2.78;;
28760;SDS011;15917;50.014;8.352;2023-04-25T12:26:53;20.67;;;3.67;;
28760;SDS011;15917;50.014;8.352;2023-04-25T12:29:29;8.20;;;2.33;;
28760;SDS011;15917;50.014;8.352;2023-04-25T12:31:59;13.23;;;2.83;;
28760;SDS011;15917;50.014;8.352;2023-04-25T12:34:27;13.00;;;3.38;;
28760;SDS011;15917;50.014;8.352;2023-04-25T12:36:52;10.68;;;2.75;;
28760;SDS011;15917;50.014;8.352;2023-04-25T12:39:19;10.82;;;3.08;;
28760;SDS011;15917;50.014;8.352;2023-04-25T12:44:13;16.45;;;3.15;;
28760;SDS011;15917;50.014;8.352;2023-04-25T12:46:39;10.00;;;2.90;;
28760;SDS011;15917;50.014;8.352;2023-04-25T12:49:05;9.20;;;2.50;;
28760;SDS011;15917;50.014;8.352;2023-04-25T12:51:33;8.68;;;2.50;;
28760;SDS011;15917;50.014;8.352;2023-04-25T12:53:59;9.05;;;2.20;;
28760;SDS011;15917;50.014;8.352;2023-04-25T12:56:26;10.30;;;2.30;;
28760;SDS011;15917;50.014;8.352;2023-04-25T12:58:52;9.07;;;2.30;;
28760;SDS011;15917;50.014;8.352;2023-04-25T13:01:19;9.10;;;2.13;;
28760;SDS011;15917;50.014;8.352;2023-04-25T13:03:48;9.02;;;2.53;;
28760;SDS011;15917;50.014;8.352;2023-04-25T13:06:17;11.85;;;2.38;;
28760;SDS011;15917;50.014;8.352;2023-04-25T13:08:44;11.90;;;2.40;;
28760;SDS011;15917;50.014;8.352;2023-04-25T13:11:09;15.60;;;2.95;;
28760;SDS011;15917;50.014;8.352;2023-04-25T13:13:36;14.43;;;2.70;;
28760;SDS011;15917;50.014;8.352;2023-04-25T13:16:02;10.25;;;2.50;;
28760;SDS011;15917;50.014;8.352;2023-04-25T13:18:29;9.15;;;2.35;;
28760;SDS011;15917;50.014;8.352;2023-04-25T13:20:55;13.77;;;2.13;;
28760;SDS011;15917;50.014;8.352;2023-04-25T13:23:21;11.35;;;2.28;;
28760;SDS011;15917;50.014;8.352;2023-04-25T13:25:48;14.85;;;2.53;;
28760;SDS011;15917;50.014;8.352;2023-04-25T13:28:14;9.13;;;2.20;;
28760;SDS011;15917;50.014;8.352;2023-04-25T13:30:40;12.13;;;2.17;;
28760;SDS011;15917;50.014;8.352;2023-04-25T13:33:05;13.23;;;2.30;;
28760;SDS011;15917;50.014;8.352;2023-04-25T13:35:32;8.23;;;2.70;;
28760;SDS011;15917;50.014;8.352;2023-04-25T13:37:58;8.50;;;2.22;;
28760;SDS011;15917;50.014;8.352;2023-04-25T13:40:25;9.07;;;2.20;;
28760;SDS011;15917;50.014;8.352;2023-04-25T13:42:52;6.13;;;2.10;;
28760;SDS011;15917;50.014;8.352;2023-04-25T13:45:18;5.78;;;1.92;;
28760;SDS011;15917;50.014;8.352;2023-04-25T13:47:47;8.85;;;2.10;;
28760;SDS011;15917;50.014;8.352;2023-04-25T13:50:13;5.35;;;1.88;;
28760;SDS011;15917;50.014;8.352;2023-04-25T13:52:39;6.78;;;2.10;;
28760;SDS011;15917;50.014;8.352;2023-04-25T13:55:06;12.65;;;1.98;;
28760;SDS011;15917;50.014;8.352;2023-04-25T13:57:33;7.75;;;2.53;;
28760;SDS011;15917;50.014;8.352;2023-04-25T13:59:59;8.02;;;2.13;;
28760;SDS011;15917;50.014;8.352;2023-04-25T14:02:31;8.80;;;1.85;;
28760;SDS011;15917;50.014;8.352;2023-04-25T14:04:57;10.30;;;2.08;;
28760;SDS011;15917;50.014;8.352;2023-04-25T14:07:22;7.65;;;2.90;;
28760;SDS011;15917;50.014;8.352;2023-04-25T14:09:48;13.75;;;2.65;;
28760;SDS011;15917;50.014;8.352;2023-04-25T14:12:15;4.72;;;1.70;;
28760;SDS011;15917;50.014;8.352;2023-04-25T14:14:41;7.70;;;2.10;;
28760;SDS011;15917;50.014;8.352;2023-04-25T14:17:07;9.30;;;2.20;;
28760;SDS011;15917;50.014;8.352;2023-04-25T14:19:33;6.32;;;1.80;;
28760;SDS011;15917;50.014;8.352;2023-04-25T14:21:59;12.10;;;2.95;;
28760;SDS011;15917;50.014;8.352;2023-04-25T14:24:25;6.22;;;2.13;;
28760;SDS011;15917;50.014;8.352;2023-04-25T14:26:51;8.52;;;2.28;;
28760;SDS011;15917;50.014;8.352;2023-04-25T14:29:16;6.35;;;2.17;;
28760;SDS011;15917;50.014;8.352;2023-04-25T14:31:42;12.57;;;2.42;;
28760;SDS011;15917;50.014;8.352;2023-04-25T14:34:07;7.60;;;2.17;;
28760;SDS011;15917;50.014;8.352;2023-04-25T14:36:33;12.35;;;2.53;;
28760;SDS011;15917;50.014;8.352;2023-04-25T14:38:59;9.68;;;2.28;;
28760;SDS011;15917;50.014;8.352;2023-04-25T14:41:25;10.38;;;2.65;;
28760;SDS011;15917;50.014;8.352;2023-04-25T14:43:51;12.32;;;2.40;;
28760;SDS011;15917;50.014;8.352;2023-04-25T14:46:18;9.82;;;2.65;;
28760;SDS011;15917;50.014;8.352;2023-04-25T14:48:45;6.65;;;2.53;;
28760;SDS011;15917;50.014;8.352;2023-04-25T14:53:45;9.18;;;2.60;;
28760;SDS011;15917;50.014;8.352;2023-04-25T14:56:10;13.00;;;3.50;;
28760;SDS011;15917;50.014;8.352;2023-04-25T14:58:37;8.60;;;2.15;;
28760;SDS011;15917;50.014;8.352;2023-04-25T15:01:05;9.52;;;1.92;;
28760;SDS011;15917;50.014;8.352;2023-04-25T15:03:31;5.47;;;2.20;;